sensor_id;sensor_type;location;lat;lon;timestamp;P1;P4;P2;P0;N10;N4;N25;N1;N05;TS
72225;SPS30;60130;52.250;5.048;2023-02-28T00:00:00;2.24;;2.21;;;;;;;
72225;SPS30;60130;52.250;5.048;2023-02-28T00:05:00;2.09;;2.03;;;;;;;
72225;SPS30;60130;52.250;5.048;2023-02-28T00:10:00;1.71;;1.67;;;;;;;
72225;SPS30;60130;52.250;5.048;2023-02-28T00:15:00;1.85;;2.20;;;;;;;
72225;SPS30;60130;52.250;5.048;2023-02-28T00:20:00;2.25;;1.38;;;;;;;
72225;SPS30;60130;52.250;5.048;2023-02-28T00:25:00;1.74;;1.78;;;;;;;
72225;SPS30;60130;52.250;5.048;2023-02-28T00:30:00;2.08;;1.92;;;;;;;
72225;SPS30;60130;52.250;5.048;2023-02-28T00:35:00;1.83;;1.71;;;;;;;
72225;SPS30;60130;52.250;5.048;2023-02-28T00:40:00;2.29;;2.19;;;;;;;
72225;SPS30;60130;52.250;5.048;2023-02-28T00:45:00;1.99;;1.90;;;;;;;
72225;SPS30;60130;52.250;5.048;2023-02-28T00:50:00;1.90;;1.85;;;;;;;
72225;SPS30;60130;52.250;5.048;2023-02-28T00:55:00;2.35;;2.28;;;;;;;
72225;SPS30;60130;52.250;5.048;2023-02-28T01:00:00;2.00;;2.00;;;;;;;
72225;SPS30;60130;52.250;5.048;2023-02-28T01:05:00;2.51;;2.41;;;;;;;
72225;SPS30;60130;52.250;5.048;2023-02-28T01:10:00;2.65;;1.96;;;;;;;
72225;SPS30;60130;52.250;5.048;2023-02-28T01:15:00;2.13;;2.03;;;;;;;
72225;SPS30;60130;52.250;5.048;2023-02-28T01:20:00;2.42;;1.78;;;;;;;
72225;SPS30;60130;52.250;5.048;2023-02-28T01:25:00;1.91;;1.96;;;;;;;
72225;SPS30;60130;52.250;5.048;2023-02-28T01:30:00;2.10;;2.10;;;;;;;
72225;SPS30;60130;52.250;5.048;2023-02-28T01:35:00;2.16;;2.10;;;;;;;
72225;SPS30;60130;52.250;5.048;2023-02-28T01:40:00;2.40;;2.47;;;;;;;
72225;SPS30;60130;52.250;5.048;2023-02-28T01:45:02;1.97;;1.92;;;;;;;
72225;SPS30;60130;52.250;5.048;2023-02-28T01:50:00;2.10;;1.89;;;;;;;
72225;SPS30;60130;52.250;5.048;2023-02-28T01:55:00;2.06;;1.86;;;;;;;
72225;SPS30;60130;52.250;5.048;2023-02-28T02:00:00;2.21;;2.07;;;;;;;
72225;SPS30;60130;52.250;5.048;2023-02-28T02:05:00;2.68;;2.55;;;;;;;
72225;SPS30;60130;52.250;5.048;2023-02-28T02:10:00;2.61;;2.57;;;;;;;
72225;SPS30;60130;52.250;5.048;2023-02-28T02:15:00;2.60;;2.59;;;;;;;
72225;SPS30;60130;52.250;5.048;2023-02-28T02:20:12;2.47;;2.45;;;;;;;
72225;SPS30;60130;52.250;5.048;2023-02-28T02:25:05;2.56;;2.84;;;;;;;
72225;SPS30;60130;52.250;5.048;2023-02-28T02:30:08;2.77;;2.71;;;;;;;
72225;SPS30;60130;52.250;5.048;2023-02-28T02:35:01;2.71;;2.67;;;;;;;
72225;SPS30;60130;52.250;5.048;2023-02-28T02:40:02;2.96;;2.93;;;;;;;
72225;SPS30;60130;52.250;5.048;2023-02-28T02:45:01;3.38;;3.31;;;;;;;
72225;SPS30;60130;52.250;5.048;2023-02-28T02:50:01;2.79;;2.74;;;;;;;
72225;SPS30;60130;52.250;5.048;2023-02-28T02:55:00;2.99;;2.99;;;;;;;
72225;SPS30;60130;52.250;5.048;2023-02-28T03:00:00;2.61;;2.61;;;;;;;
72225;SPS30;60130;52.250;5.048;2023-02-28T03:05:01;2.70;;2.67;;;;;;;
72225;SPS30;60130;52.250;5.048;2023-02-28T03:10:00;2.91;;2.96;;;;;;;
72225;SPS30;60130;52.250;5.048;2023-02-28T03:15:03;3.12;;3.06;;;;;;;
72225;SPS30;60130;52.250;5.048;2023-02-28T03:20:05;3.24;;3.24;;;;;;;
72225;SPS30;60130;52.250;5.048;2023-02-28T03:25:01;3.37;;3.11;;;;;;;
72225;SPS30;60130;52.250;5.048;2023-02-28T03:30:00;3.13;;3.04;;;;;;;
72225;SPS30;60130;52.250;5.048;2023-02-28T03:35:01;2.54;;2.51;;;;;;;
72225;SPS30;60130;52.250;5.048;2023-02-28T03:40:01;2.82;;3.00;;;;;;;
72225;SPS30;60130;52.250;5.048;2023-02-28T03:45:00;3.41;;2.81;;;;;;;
72225;SPS30;60130;52.250;5.048;2023-02-28T03:50:01;3.21;;2.58;;;;;;;
72225;SPS30;60130;52.250;5.048;2023-02-28T03:55:00;2.95;;3.43;;;;;;;
72225;SPS30;60130;52.250;5.048;2023-02-28T04:00:02;2.95;;3.50;;;;;;;
72225;SPS30;60130;52.250;5.048;2023-02-28T04:05:00;4.18;;3.43;;;;;;;
72225;SPS30;60130;52.250;5.048;2023-02-28T04:10:00;4.17;;4.10;;;;;;;
72225;SPS30;60130;52.250;5.048;2023-02-28T04:15:00;4.72;;4.62;;;;;;;
72225;SPS30;60130;52.250;5.048;2023-02-28T04:20:00;3.42;;3.39;;;;;;;
72225;SPS30;60130;52.250;5.048;2023-02-28T04:25:00;4.38;;4.28;;;;;;;
72225;SPS30;60130;52.250;5.048;2023-02-28T04:30:00;4.20;;4.15;;;;;;;
72225;SPS30;60130;52.250;5.048;2023-02-28T04:35:00;3.81;;3.80;;;;;;;
72225;SPS30;60130;52.250;5.048;2023-02-28T04:40:00;4.89;;4.82;;;;;;;
72225;SPS30;60130;52.250;5.048;2023-02-28T04:45:00;4.30;;4.01;;;;;;;
72225;SPS30;60130;52.250;5.048;2023-02-28T04:50:00;4.09;;3.59;;;;;;;
72225;SPS30;60130;52.250;5.048;2023-02-28T04:55:00;5.15;;4.83;;;;;;;
72225;SPS30;60130;52.250;5.048;2023-02-28T05:00:00;5.50;;5.58;;;;;;;
72225;SPS30;60130;52.250;5.048;2023-02-28T05:05:00;5.50;;5.96;;;;;;;
72225;SPS30;60130;52.250;5.048;2023-02-28T05:10:00;5.50;;5.93;;;;;;;
72225;SPS30;60130;52.250;5.048;2023-02-28T05:15:00;5.50;;5.67;;;;;;;
72225;SPS30;60130;52.250;5.048;2023-02-28T05:20:00;5.50;;5.89;;;;;;;
72225;SPS30;60130;52.250;5.048;2023-02-28T05:25:00;5.50;;6.29;;;;;;;
72225;SPS30;60130;52.250;5.048;2023-02-28T05:30:00;unavailable;;unavailable;;;;;;;
72225;SPS30;60130;52.250;5.048;2023-02-28T05:35:00;7.99;;7.56;;;;;;;
72225;SPS30;60130;52.250;5.048;2023-02-28T05:40:00;8.93;;8.54;;;;;;;
72225;SPS30;60130;52.250;5.048;2023-02-28T05:45:00;6.76;;7.04;;;;;;;
72225;SPS30;60130;52.250;5.048;2023-02-28T05:50:00;6.42;;6.42;;;;;;;
72225;SPS30;60130;52.250;5.048;2023-02-28T05:55:00;6.46;;6.46;;;;;;;
72225;SPS30;60130;52.250;5.048;2023-02-28T06:00:00;6.70;;6.70;;;;;;;
72225;SPS30;60130;52.250;5.048;2023-02-28T06:05:00;6.37;;6.37;;;;;;;
72225;SPS30;60130;52.250;5.048;2023-02-28T06:10:00;5.64;;5.64;;;;;;;
72225;SPS30;60130;52.250;5.048;2023-02-28T06:15:00;5.63;;5.63;;;;;;;
72225;SPS30;60130;52.250;5.048;2023-02-28T06:20:00;5.54;;5.06;;;;;;;
72225;SPS30;60130;52.250;5.048;2023-02-28T06:25:00;6.29;;6.29;;;;;;;
72225;SPS30;60130;52.250;5.048;2023-02-28T06:30:00;5.28;;5.28;;;;;;;
72225;SPS30;60130;52.250;5.048;2023-02-28T06:35:00;5.50;;5.45;;;;;;;
72225;SPS30;60130;52.250;5.048;2023-02-28T06:40:00;5.23;;5.23;;;;;;;
72225;SPS30;60130;52.250;5.048;2023-02-28T06:45:00;4.65;;4.63;;;;;;;
72225;SPS30;60130;52.250;5.048;2023-02-28T06:50:00;4.89;;4.97;;;;;;;
72225;SPS30;60130;52.250;5.048;2023-02-28T06:55:00;4.34;;5.26;;;;;;;
72225;SPS30;60130;52.250;5.048;2023-02-28T07:00:00;5.87;;5.42;;;;;;;
72225;SPS30;60130;52.250;5.048;2023-02-28T07:05:00;5.60;;5.60;;;;;;;
72225;SPS30;60130;52.250;5.048;2023-02-28T07:10:00;5.83;;5.39;;;;;;;
72225;SPS30;60130;52.250;5.048;2023-02-28T07:15:00;5.73;;4.94;;;;;;;
72225;SPS30;60130;52.250;5.048;2023-02-28T07:20:00;5.73;;5.02;;;;;;;
72225;SPS30;60130;52.250;5.048;2023-02-28T07:25:00;5.73;;5.32;;;;;;;
72225;SPS30;60130;52.250;5.048;2023-02-28T07:30:00;5.63;;5.63;;;;;;;
72225;SPS30;60130;52.250;5.048;2023-02-28T07:35:00;4.31;;4.31;;;;;;;
72225;SPS30;60130;52.250;5.048;2023-02-28T07:40:00;5.65;;5.64;;;;;;;
72225;SPS30;60130;52.250;5.048;2023-02-28T07:45:00;31.42;;29.31;;;;;;;
72225;SPS30;60130;52.250;5.048;2023-02-28T07:50:00;18.85;;18.11;;;;;;;
72225;SPS30;60130;52.250;5.048;2023-02-28T07:55:00;8.75;;8.22;;;;;;;
72225;SPS30;60130;52.250;5.048;2023-02-28T08:00:00;5.23;;5.23;;;;;;;
72225;SPS30;60130;52.250;5.048;2023-02-28T08:05:00;5.36;;5.36;;;;;;;
72225;SPS30;60130;52.250;5.048;2023-02-28T08:10:00;6.05;;6.05;;;;;;;
72225;SPS30;60130;52.250;5.048;2023-02-28T08:15:00;5.64;;5.57;;;;;;;
72225;SPS30;60130;52.250;5.048;2023-02-28T08:20:00;5.78;;5.78;;;;;;;
72225;SPS30;60130;52.250;5.048;2023-02-28T08:25:00;6.62;;6.21;;;;;;;
72225;SPS30;60130;52.250;5.048;2023-02-28T08:30:00;6.73;;6.34;;;;;;;
72225;SPS30;60130;52.250;5.048;2023-02-28T08:35:00;6.71;;6.71;;;;;;;
72225;SPS30;60130;52.250;5.048;2023-02-28T08:40:00;6.83;;6.83;;;;;;;
72225;SPS30;60130;52.250;5.048;2023-02-28T08:45:00;5.81;;5.81;;;;;;;
72225;SPS30;60130;52.250;5.048;2023-02-28T08:50:00;4.48;;4.48;;;;;;;
72225;SPS30;60130;52.250;5.048;2023-02-28T08:55:00;4.94;;4.94;;;;;;;
72225;SPS30;60130;52.250;5.048;2023-02-28T09:00:00;5.76;;5.76;;;;;;;
72225;SPS30;60130;52.250;5.048;2023-02-28T09:05:00;6.16;;6.16;;;;;;;
72225;SPS30;60130;52.250;5.048;2023-02-28T09:10:00;5.27;;5.27;;;;;;;
72225;SPS30;60130;52.250;5.048;2023-02-28T09:15:00;4.98;;4.98;;;;;;;
72225;SPS30;60130;52.250;5.048;2023-02-28T09:20:00;5.87;;5.87;;;;;;;
72225;SPS30;60130;52.250;5.048;2023-02-28T09:25:00;5.83;;5.83;;;;;;;
72225;SPS30;60130;52.250;5.048;2023-02-28T09:30:00;5.98;;5.98;;;;;;;
72225;SPS30;60130;52.250;5.048;2023-02-28T09:35:00;6.24;;6.20;;;;;;;
72225;SPS30;60130;52.250;5.048;2023-02-28T09:40:00;5.52;;5.52;;;;;;;
72225;SPS30;60130;52.250;5.048;2023-02-28T09:45:00;6.14;;5.82;;;;;;;
72225;SPS30;60130;52.250;5.048;2023-02-28T09:50:02;unavailable;;unavailable;;;;;;;
72225;SPS30;60130;52.250;5.048;2023-02-28T09:55:04;6.14;;6.07;;;;;;;
72225;SPS30;60130;52.250;5.048;2023-02-28T10:00:03;6.06;;6.06;;;;;;;
72225;SPS30;60130;52.250;5.048;2023-02-28T10:05:00;5.46;;4.98;;;;;;;
72225;SPS30;60130;52.250;5.048;2023-02-28T10:10:02;4.38;;4.38;;;;;;;
72225;SPS30;60130;52.250;5.048;2023-02-28T10:15:00;4.38;;4.02;;;;;;;
72225;SPS30;60130;52.250;5.048;2023-02-28T10:20:00;3.80;;3.99;;;;;;;
72225;SPS30;60130;52.250;5.048;2023-02-28T10:25:00;3.48;;3.84;;;;;;;
72225;SPS30;60130;52.250;5.048;2023-02-28T10:30:00;3.16;;3.16;;;;;;;
72225;SPS30;60130;52.250;5.048;2023-02-28T10:35:00;3.62;;3.48;;;;;;;
72225;SPS30;60130;52.250;5.048;2023-02-28T10:40:00;3.79;;3.81;;;;;;;
72225;SPS30;60130;52.250;5.048;2023-02-28T10:45:11;4.11;;4.41;;;;;;;
72225;SPS30;60130;52.250;5.048;2023-02-28T10:50:00;4.11;;3.69;;;;;;;
72225;SPS30;60130;52.250;5.048;2023-02-28T11:00:06;3.90;;3.45;;;;;;;
72225;SPS30;60130;52.250;5.048;2023-02-28T11:05:00;4.62;;4.62;;;;;;;
72225;SPS30;60130;52.250;5.048;2023-02-28T11:10:00;4.15;;4.06;;;;;;;
72225;SPS30;60130;52.250;5.048;2023-02-28T11:15:01;4.18;;4.18;;;;;;;
72225;SPS30;60130;52.250;5.048;2023-02-28T11:20:01;4.12;;4.12;;;;;;;
72225;SPS30;60130;52.250;5.048;2023-02-28T11:25:01;6.17;;5.59;;;;;;;
72225;SPS30;60130;52.250;5.048;2023-02-28T11:30:00;4.12;;3.96;;;;;;;
72225;SPS30;60130;52.250;5.048;2023-02-28T11:35:01;3.13;;3.16;;;;;;;
72225;SPS30;60130;52.250;5.048;2023-02-28T11:40:00;3.18;;3.11;;;;;;;
72225;SPS30;60130;52.250;5.048;2023-02-28T11:45:03;3.57;;3.52;;;;;;;
72225;SPS30;60130;52.250;5.048;2023-02-28T11:50:05;2.36;;3.56;;;;;;;
72225;SPS30;60130;52.250;5.048;2023-02-28T11:55:02;3.06;;3.21;;;;;;;
72225;SPS30;60130;52.250;5.048;2023-02-28T12:00:03;3.06;;3.30;;;;;;;
72225;SPS30;60130;52.250;5.048;2023-02-28T12:05:04;3.06;;2.97;;;;;;;
72225;SPS30;60130;52.250;5.048;2023-02-28T12:10:01;3.06;;2.45;;;;;;;
72225;SPS30;60130;52.250;5.048;2023-02-28T12:15:04;3.06;;2.78;;;;;;;
72225;SPS30;60130;52.250;5.048;2023-02-28T12:20:02;unavailable;;unavailable;;;;;;;
72225;SPS30;60130;52.250;5.048;2023-02-28T12:25:13;3.32;;3.32;;;;;;;
72225;SPS30;60130;52.250;5.048;2023-02-28T12:30:01;3.08;;3.08;;;;;;;
72225;SPS30;60130;52.250;5.048;2023-02-28T12:35:01;3.37;;3.37;;;;;;;
72225;SPS30;60130;52.250;5.048;2023-02-28T12:40:01;2.66;;2.66;;;;;;;
72225;SPS30;60130;52.250;5.048;2023-02-28T12:45:01;3.16;;3.16;;;;;;;
72225;SPS30;60130;52.250;5.048;2023-02-28T12:50:02;3.47;;3.47;;;;;;;
72225;SPS30;60130;52.250;5.048;2023-02-28T12:55:01;3.05;;3.05;;;;;;;
72225;SPS30;60130;52.250;5.048;2023-02-28T13:00:00;2.73;;2.73;;;;;;;
72225;SPS30;60130;52.250;5.048;2023-02-28T13:05:02;2.82;;2.82;;;;;;;
72225;SPS30;60130;52.250;5.048;2023-02-28T13:10:00;3.08;;3.08;;;;;;;
72225;SPS30;60130;52.250;5.048;2023-02-28T13:15:02;2.80;;2.91;;;;;;;
72225;SPS30;60130;52.250;5.048;2023-02-28T13:20:00;2.60;;2.60;;;;;;;
72225;SPS30;60130;52.250;5.048;2023-02-28T13:25:00;3.05;;3.05;;;;;;;
72225;SPS30;60130;52.250;5.048;2023-02-28T13:30:00;2.77;;2.77;;;;;;;
72225;SPS30;60130;52.250;5.048;2023-02-28T13:40:06;4.17;;4.17;;;;;;;
72225;SPS30;60130;52.250;5.048;2023-02-28T13:55:06;4.25;;4.25;;;;;;;
72225;SPS30;60130;52.250;5.048;2023-02-28T14:00:02;4.51;;4.51;;;;;;;
72225;SPS30;60130;52.250;5.048;2023-02-28T14:05:01;4.53;;4.53;;;;;;;
72225;SPS30;60130;52.250;5.048;2023-02-28T14:10:01;4.86;;4.65;;;;;;;
72225;SPS30;60130;52.250;5.048;2023-02-28T14:15:00;4.71;;4.91;;;;;;;
72225;SPS30;60130;52.250;5.048;2023-02-28T14:20:00;4.77;;4.77;;;;;;;
72225;SPS30;60130;52.250;5.048;2023-02-28T14:25:05;4.55;;5.01;;;;;;;
72225;SPS30;60130;52.250;5.048;2023-02-28T14:30:03;4.75;;4.73;;;;;;;
72225;SPS30;60130;52.250;5.048;2023-02-28T14:35:03;unavailable;;unavailable;;;;;;;
72225;SPS30;60130;52.250;5.048;2023-02-28T14:40:00;4.98;;4.70;;;;;;;
72225;SPS30;60130;52.250;5.048;2023-02-28T14:45:00;4.98;;4.58;;;;;;;
72225;SPS30;60130;52.250;5.048;2023-02-28T14:50:00;5.17;;4.67;;;;;;;
72225;SPS30;60130;52.250;5.048;2023-02-28T14:55:01;unavailable;;unavailable;;;;;;;
72225;SPS30;60130;52.250;5.048;2023-02-28T15:00:01;4.77;;4.77;;;;;;;
72225;SPS30;60130;52.250;5.048;2023-02-28T15:05:01;5.16;;5.16;;;;;;;
72225;SPS30;60130;52.250;5.048;2023-02-28T15:15:00;4.92;;4.92;;;;;;;
72225;SPS30;60130;52.250;5.048;2023-02-28T15:20:00;5.69;;5.69;;;;;;;
72225;SPS30;60130;52.250;5.048;2023-02-28T15:25:00;6.14;;5.06;;;;;;;
72225;SPS30;60130;52.250;5.048;2023-02-28T15:30:00;5.34;;5.19;;;;;;;
72225;SPS30;60130;52.250;5.048;2023-02-28T15:40:05;5.23;;5.23;;;;;;;
72225;SPS30;60130;52.250;5.048;2023-02-28T15:45:00;5.76;;5.76;;;;;;;
72225;SPS30;60130;52.250;5.048;2023-02-28T15:50:00;9.68;;9.68;;;;;;;
72225;SPS30;60130;52.250;5.048;2023-02-28T15:55:06;22.45;;22.28;;;;;;;
72225;SPS30;60130;52.250;5.048;2023-02-28T16:00:00;23.54;;23.52;;;;;;;
72225;SPS30;60130;52.250;5.048;2023-02-28T16:05:02;19.70;;18.35;;;;;;;
72225;SPS30;60130;52.250;5.048;2023-02-28T16:10:00;5.95;;5.55;;;;;;;
72225;SPS30;60130;52.250;5.048;2023-02-28T16:15:01;5.01;;5.01;;;;;;;
72225;SPS30;60130;52.250;5.048;2023-02-28T16:20:00;5.27;;5.27;;;;;;;
72225;SPS30;60130;52.250;5.048;2023-02-28T16:25:00;5.44;;5.44;;;;;;;
72225;SPS30;60130;52.250;5.048;2023-02-28T16:30:00;6.24;;6.58;;;;;;;
72225;SPS30;60130;52.250;5.048;2023-02-28T16:35:00;15.60;;15.36;;;;;;;
72225;SPS30;60130;52.250;5.048;2023-02-28T16:40:00;11.81;;11.81;;;;;;;
72225;SPS30;60130;52.250;5.048;2023-02-28T16:45:00;25.21;;23.44;;;;;;;
72225;SPS30;60130;52.250;5.048;2023-02-28T16:50:00;7.71;;7.71;;;;;;;
72225;SPS30;60130;52.250;5.048;2023-02-28T16:55:00;5.47;;5.47;;;;;;;
72225;SPS30;60130;52.250;5.048;2023-02-28T17:00:00;5.64;;5.64;;;;;;;
72225;SPS30;60130;52.250;5.048;2023-02-28T17:05:00;5.58;;5.58;;;;;;;
72225;SPS30;60130;52.250;5.048;2023-02-28T17:10:00;14.04;;12.57;;;;;;;
72225;SPS30;60130;52.250;5.048;2023-02-28T17:15:00;9.31;;8.74;;;;;;;
72225;SPS30;60130;52.250;5.048;2023-02-28T17:20:01;9.44;;8.76;;;;;;;
72225;SPS30;60130;52.250;5.048;2023-02-28T17:25:00;11.30;;10.16;;;;;;;
72225;SPS30;60130;52.250;5.048;2023-02-28T17:30:00;13.08;;11.78;;;;;;;
72225;SPS30;60130;52.250;5.048;2023-02-28T17:35:00;12.07;;11.22;;;;;;;
72225;SPS30;60130;52.250;5.048;2023-02-28T17:40:00;9.45;;9.37;;;;;;;
72225;SPS30;60130;52.250;5.048;2023-02-28T17:45:00;9.20;;8.78;;;;;;;
72225;SPS30;60130;52.250;5.048;2023-02-28T17:50:00;11.61;;11.47;;;;;;;
72225;SPS30;60130;52.250;5.048;2023-02-28T17:55:00;10.49;;10.15;;;;;;;
72225;SPS30;60130;52.250;5.048;2023-02-28T18:00:00;8.01;;8.08;;;;;;;
72225;SPS30;60130;52.250;5.048;2023-02-28T18:05:00;7.65;;9.34;;;;;;;
72225;SPS30;60130;52.250;5.048;2023-02-28T18:10:00;10.10;;9.93;;;;;;;
72225;SPS30;60130;52.250;5.048;2023-02-28T18:15:00;8.05;;7.57;;;;;;;
72225;SPS30;60130;52.250;5.048;2023-02-28T18:20:00;8.12;;8.86;;;;;;;
72225;SPS30;60130;52.250;5.048;2023-02-28T18:25:00;8.64;;8.58;;;;;;;
72225;SPS30;60130;52.250;5.048;2023-02-28T18:30:00;8.52;;8.48;;;;;;;
72225;SPS30;60130;52.250;5.048;2023-02-28T18:35:00;7.88;;7.85;;;;;;;
72225;SPS30;60130;52.250;5.048;2023-02-28T18:40:00;8.36;;7.83;;;;;;;
72225;SPS30;60130;52.250;5.048;2023-02-28T18:45:00;unavailable;;unavailable;;;;;;;
72225;SPS30;60130;52.250;5.048;2023-02-28T18:50:00;7.60;;7.60;;;;;;;
72225;SPS30;60130;52.250;5.048;2023-02-28T18:55:00;9.21;;9.18;;;;;;;
72225;SPS30;60130;52.250;5.048;2023-02-28T19:00:00;8.80;;8.74;;;;;;;
72225;SPS30;60130;52.250;5.048;2023-02-28T19:05:00;7.64;;7.63;;;;;;;
72225;SPS30;60130;52.250;5.048;2023-02-28T19:10:00;9.99;;12.01;;;;;;;
72225;SPS30;60130;52.250;5.048;2023-02-28T19:15:00;33.54;;32.23;;;;;;;
72225;SPS30;60130;52.250;5.048;2023-02-28T19:20:00;95.84;;74.04;;;;;;;
72225;SPS30;60130;52.250;5.048;2023-02-28T19:25:00;81.78;;16.29;;;;;;;
72225;SPS30;60130;52.250;5.048;2023-02-28T19:30:00;38.35;;68.35;;;;;;;
72225;SPS30;60130;52.250;5.048;2023-02-28T19:35:00;46.78;;28.14;;;;;;;
72225;SPS30;60130;52.250;5.048;2023-02-28T19:40:00;94.02;;67.90;;;;;;;
72225;SPS30;60130;52.250;5.048;2023-02-28T19:45:00;44.30;;47.80;;;;;;;
72225;SPS30;60130;52.250;5.048;2023-02-28T19:50:00;52.70;;51.65;;;;;;;
72225;SPS30;60130;52.250;5.048;2023-02-28T19:55:00;unavailable;;unavailable;;;;;;;
72225;SPS30;60130;52.250;5.048;2023-02-28T20:00:00;26.08;;26.06;;;;;;;
72225;SPS30;60130;52.250;5.048;2023-02-28T20:05:00;27.12;;26.93;;;;;;;
72225;SPS30;60130;52.250;5.048;2023-02-28T20:10:00;34.54;;34.52;;;;;;;
72225;SPS30;60130;52.250;5.048;2023-02-28T20:15:00;50.62;;50.62;;;;;;;
72225;SPS30;60130;52.250;5.048;2023-02-28T20:20:00;21.33;;26.22;;;;;;;
72225;SPS30;60130;52.250;5.048;2023-02-28T20:25:00;10.49;;10.48;;;;;;;
72225;SPS30;60130;52.250;5.048;2023-02-28T20:30:00;12.43;;12.21;;;;;;;
72225;SPS30;60130;52.250;5.048;2023-02-28T20:35:00;9.68;;9.61;;;;;;;
72225;SPS30;60130;52.250;5.048;2023-02-28T20:40:00;11.71;;8.42;;;;;;;
72225;SPS30;60130;52.250;5.048;2023-02-28T20:45:00;11.64;;11.43;;;;;;;
72225;SPS30;60130;52.250;5.048;2023-02-28T20:50:00;9.25;;9.06;;;;;;;
72225;SPS30;60130;52.250;5.048;2023-02-28T20:55:00;17.57;;17.34;;;;;;;
72225;SPS30;60130;52.250;5.048;2023-02-28T21:00:00;8.32;;8.32;;;;;;;
72225;SPS30;60130;52.250;5.048;2023-02-28T21:05:00;8.82;;9.10;;;;;;;
72225;SPS30;60130;52.250;5.048;2023-02-28T21:10:00;9.83;;9.83;;;;;;;
72225;SPS30;60130;52.250;5.048;2023-02-28T21:15:00;9.86;;9.73;;;;;;;
72225;SPS30;60130;52.250;5.048;2023-02-28T21:20:00;8.84;;8.80;;;;;;;
72225;SPS30;60130;52.250;5.048;2023-02-28T21:25:00;9.16;;9.01;;;;;;;
72225;SPS30;60130;52.250;5.048;2023-02-28T21:30:00;9.42;;9.42;;;;;;;
72225;SPS30;60130;52.250;5.048;2023-02-28T21:35:00;10.10;;9.93;;;;;;;
72225;SPS30;60130;52.250;5.048;2023-02-28T21:40:00;11.09;;10.84;;;;;;;
72225;SPS30;60130;52.250;5.048;2023-02-28T21:45:00;10.73;;10.63;;;;;;;
72225;SPS30;60130;52.250;5.048;2023-02-28T21:50:00;12.02;;11.66;;;;;;;
72225;SPS30;60130;52.250;5.048;2023-02-28T21:55:00;10.76;;10.56;;;;;;;
72225;SPS30;60130;52.250;5.048;2023-02-28T22:00:00;10.13;;9.91;;;;;;;
72225;SPS30;60130;52.250;5.048;2023-02-28T22:05:00;19.01;;17.53;;;;;;;
72225;SPS30;60130;52.250;5.048;2023-02-28T22:10:00;14.98;;14.68;;;;;;;
72225;SPS30;60130;52.250;5.048;2023-02-28T22:15:00;14.78;;14.65;;;;;;;
72225;SPS30;60130;52.250;5.048;2023-02-28T22:20:00;12.00;;11.84;;;;;;;
72225;SPS30;60130;52.250;5.048;2023-02-28T22:25:00;12.33;;12.09;;;;;;;
72225;SPS30;60130;52.250;5.048;2023-02-28T22:30:00;11.77;;11.80;;;;;;;
72225;SPS30;60130;52.250;5.048;2023-02-28T22:35:00;11.92;;11.19;;;;;;;
72225;SPS30;60130;52.250;5.048;2023-02-28T22:40:00;10.35;;10.13;;;;;;;
72225;SPS30;60130;52.250;5.048;2023-02-28T22:45:00;11.08;;10.81;;;;;;;
72225;SPS30;60130;52.250;5.048;2023-02-28T22:50:00;15.70;;14.33;;;;;;;
72225;SPS30;60130;52.250;5.048;2023-02-28T22:55:00;13.67;;13.01;;;;;;;
72225;SPS30;60130;52.250;5.048;2023-02-28T23:00:00;13.00;;12.42;;;;;;;
72225;SPS30;60130;52.250;5.048;2023-02-28T23:05:00;11.60;;11.42;;;;;;;
72225;SPS30;60130;52.250;5.048;2023-02-28T23:10:02;11.41;;11.18;;;;;;;
72225;SPS30;60130;52.250;5.048;2023-02-28T23:15:00;11.57;;11.41;;;;;;;
72225;SPS30;60130;52.250;5.048;2023-02-28T23:20:00;12.60;;12.18;;;;;;;
72225;SPS30;60130;52.250;5.048;2023-02-28T23:25:00;11.24;;10.81;;;;;;;
72225;SPS30;60130;52.250;5.048;2023-02-28T23:30:00;11.36;;11.18;;;;;;;
72225;SPS30;60130;52.250;5.048;2023-02-28T23:35:00;12.77;;12.52;;;;;;;
72225;SPS30;60130;52.250;5.048;2023-02-28T23:40:00;12.91;;11.99;;;;;;;
72225;SPS30;60130;52.250;5.048;2023-02-28T23:45:00;12.14;;11.53;;;;;;;
72225;SPS30;60130;52.250;5.048;2023-02-28T23:50:00;12.81;;12.20;;;;;;;
72225;SPS30;60130;52.250;5.048;2023-02-28T23:55:00;14.53;;16.27;;;;;;;
